Boyd, Iowa
Current Conditions -  °F | °C
As of 2:20 PM on Thursday 29 Jan 2015 (Local Time) from KCCY Reporting Station
Overcast Overcast  
Wind Chill: 19°   Ceiling: 2300
Heat Index: 32°   Visibility: 10mi
Dew Point: 27°   Wind: 22mph
Humidity: 80%   Direction: 320°NW
Pressure: 30.22"   Gusts: 31mph
Location:  43.0559°N, 92.3113°W
Report Text: KCCY 292020Z AUTO 32019G27KT 10SM OVC023 00/M03 A3022 RMK AO2
Loading
Personal Weather Stations






























Interactive Weather Map New forecast layout! Learn more

10-Day Weather Forecast

Advertisements
Track Severe Weather on mobile